Time;durP1;ratioP1;P1;durP2;ratioP2;P2;SDS_P1;SDS_P2;PMS_P1;PMS_P2;Temp;Humidity;BMP_temperature;BMP_pressure;BME280_temperature;BME280_humidity;BME280_pressure;Samples;Min_cycle;Max_cycle;Signal;HPM_P1;HPM_P2
2023/03/22 00:01:36;;;;;;;13.55;10.10;;;10.50;99.90;;;;;;5058239;28;20516;-72
2023/03/22 00:04:02;;;;;;;13.18;9.75;;;10.40;99.90;;;;;;5049535;28;20051;-72
2023/03/22 00:06:31;;;;;;;11.30;9.05;;;10.40;99.90;;;;;;5063700;28;20040;-71
2023/03/22 00:08:56;;;;;;;13.60;9.48;;;10.40;99.90;;;;;;5043285;28;20044;-71
2023/03/22 00:11:26;;;;;;;10.90;9.38;;;10.40;99.90;;;;;;5042935;28;20063;-71
2023/03/22 00:13:52;;;;;;;14.68;9.05;;;10.30;99.90;;;;;;5063020;28;20036;-71
2023/03/22 00:16:18;;;;;;;14.80;9.63;;;10.30;99.90;;;;;;5049077;28;20047;-71
2023/03/22 00:18:45;;;;;;;13.25;9.13;;;10.20;99.90;;;;;;5031334;28;20036;-71
2023/03/22 00:21:13;;;;;;;14.73;9.55;;;10.30;99.90;;;;;;5062533;28;20044;-72
2023/03/22 00:23:39;;;;;;;12.63;9.00;;;10.20;99.90;;;;;;5043398;28;20526;-72
2023/03/22 00:26:06;;;;;;;13.50;8.68;;;10.20;99.90;;;;;;5045599;28;20051;-72
2023/03/22 00:28:32;;;;;;;12.93;7.95;;;10.20;99.90;;;;;;5044040;28;20040;-72
2023/03/22 00:31:00;;;;;;;11.30;7.47;;;10.10;99.90;;;;;;5048896;28;20619;-71
2023/03/22 00:33:26;;;;;;;11.60;8.18;;;10.10;99.90;;;;;;5062650;28;20074;-71
2023/03/22 00:35:56;;;;;;;13.55;8.45;;;10.10;99.90;;;;;;5047702;28;20069;-71
2023/03/22 00:38:22;;;;;;;11.93;8.25;;;10.10;99.90;;;;;;5061337;28;20088;-71
2023/03/22 00:40:48;;;;;;;12.10;7.40;;;10.00;99.90;;;;;;5058596;28;20047;-72
2023/03/22 00:43:14;;;;;;;14.02;8.23;;;10.00;99.90;;;;;;5044236;28;20530;-71
2023/03/22 00:45:40;;;;;;;14.18;9.25;;;10.00;99.90;;;;;;5059069;28;20055;-71
2023/03/22 00:48:10;;;;;;;13.30;7.07;;;10.00;99.90;;;;;;5031896;28;20048;-72
2023/03/22 00:50:37;;;;;;;;;;;9.90;99.90;;;;;;5044487;28;20082;-72
2023/03/22 00:53:03;;;;;;;9.60;6.47;;;9.90;99.90;;;;;;5041638;28;20366;-71
2023/03/22 00:55:35;;;;;;;14.57;6.80;;;9.90;99.90;;;;;;5052059;28;20055;-71
2023/03/22 00:58:01;;;;;;;13.55;7.38;;;9.90;99.90;;;;;;5050932;28;20048;-74
2023/03/22 01:00:27;;;;;;;12.93;7.25;;;9.90;99.90;;;;;;5061065;28;20055;-74
2023/03/22 01:02:53;;;;;;;14.73;7.43;;;9.90;99.90;;;;;;5048413;28;20044;-74
2023/03/22 01:05:20;;;;;;;11.20;6.65;;;9.90;99.90;;;;;;5041107;28;20081;-72
2023/03/22 01:07:49;;;;;;;11.38;6.05;;;9.80;99.90;;;;;;5044638;28;20043;-72
2023/03/22 01:10:16;;;;;;;11.57;5.78;;;9.80;99.90;;;;;;5043068;28;20443;-71
2023/03/22 01:12:42;;;;;;;12.07;5.40;;;9.80;99.90;;;;;;5041349;28;20488;-72
2023/03/22 01:15:09;;;;;;;10.38;5.15;;;9.90;99.90;;;;;;5042262;28;20051;-72
2023/03/22 01:17:35;;;;;;;11.88;5.50;;;9.80;99.90;;;;;;5056972;28;20526;-72
2023/03/22 01:20:01;;;;;;;10.60;4.82;;;9.80;99.90;;;;;;5050579;28;20060;-72
2023/03/22 01:22:27;;;;;;;12.52;5.63;;;9.80;99.90;;;;;;5044461;28;20287;-72
2023/03/22 01:24:52;;;;;;;11.98;4.82;;;9.80;99.90;;;;;;5063259;28;20380;-72
2023/03/22 01:27:18;;;;;;;8.82;4.57;;;9.80;99.90;;;;;;5028982;28;20535;-72
2023/03/22 01:29:44;;;;;;;9.93;4.65;;;9.80;99.90;;;;;;5064411;28;20127;-72
2023/03/22 01:32:10;;;;;;;10.25;4.63;;;9.80;99.90;;;;;;5030210;28;20055;-72
2023/03/22 01:34:35;;;;;;;12.73;4.43;;;9.80;99.90;;;;;;5046701;28;20044;-72
2023/03/22 01:37:01;;;;;;;10.23;4.72;;;9.80;99.90;;;;;;5030734;28;20394;-72
2023/03/22 01:39:27;;;;;;;8.75;4.28;;;9.80;99.90;;;;;;5064522;28;20126;-72
2023/03/22 01:41:53;;;;;;;10.13;4.15;;;9.80;99.90;;;;;;5036419;28;20058;-72
2023/03/22 01:44:21;;;;;;;12.65;4.75;;;9.80;99.90;;;;;;5047204;28;20494;-72
2023/03/22 01:46:48;;;;;;;10.98;4.75;;;9.70;99.90;;;;;;5046081;28;20051;-72
2023/03/22 01:49:30;;;;;;;12.32;4.10;;;9.70;99.90;;;;;;5043090;28;20090;-72
2023/03/22 01:52:00;;;;;;;10.48;4.50;;;9.80;99.90;;;;;;5047610;28;20119;-72
2023/03/22 01:54:28;;;;;;;12.32;3.80;;;9.70;99.90;;;;;;5051006;28;20756;-72
2023/03/22 01:56:54;;;;;;;11.35;4.35;;;9.70;99.90;;;;;;5057404;28;20044;-72
2023/03/22 01:59:23;;;;;;;10.10;3.55;;;9.70;99.90;;;;;;5061312;28;20385;-72
2023/03/22 02:01:49;;;;;;;10.52;4.20;;;9.70;99.90;;;;;;5021032;28;20537;-72
2023/03/22 02:04:19;;;;;;;11.05;3.90;;;9.70;99.90;;;;;;5040812;28;20094;-72
2023/03/22 02:06:46;;;;;;;9.63;3.30;;;9.80;99.90;;;;;;5056588;28;20040;-71
2023/03/22 02:09:13;;;;;;;8.82;3.40;;;9.70;99.90;;;;;;5061465;28;20052;-71
2023/03/22 02:11:48;;;;;;;12.23;3.70;;;9.80;99.90;;;;;;5051676;28;20062;-71
2023/03/22 02:14:35;;;;;;;8.95;3.00;;;9.80;99.90;;;;;;5047628;28;20050;-72
2023/03/22 02:17:16;;;;;;;12.07;3.00;;;9.80;99.90;;;;;;5037155;28;20181;-73
2023/03/22 02:20:09;;;;;;;8.18;2.80;;;9.80;99.90;;;;;;5056121;28;20525;-73
2023/03/22 02:23:20;;;;;;;11.43;3.33;;;9.80;99.90;;;;;;5057596;28;20601;-73
2023/03/22 02:26:16;;;;;;;11.48;3.15;;;9.80;99.90;;;;;;5059161;28;20039;-73
2023/03/22 02:28:48;;;;;;;11.13;3.63;;;9.70;99.90;;;;;;5058460;28;20047;-73
2023/03/22 02:31:45;;;;;;;9.40;3.08;;;9.70;99.90;;;;;;5056979;28;20033;-74
2023/03/22 02:34:16;;;;;;;10.68;2.83;;;9.70;99.90;;;;;;5060157;28;20040;-73
2023/03/22 02:37:15;;;;;;;10.80;3.15;;;9.70;99.90;;;;;;5045647;28;20075;-73
2023/03/22 02:40:06;;;;;;;11.27;3.47;;;9.80;99.90;;;;;;5021174;28;20135;-73
2023/03/22 02:42:31;;;;;;;12.35;3.50;;;9.80;99.90;;;;;;5060533;28;20048;-73
2023/03/22 02:45:13;;;;;;;14.27;3.88;;;9.70;99.90;;;;;;5035342;28;20079;-71
2023/03/22 02:48:12;;;;;;;10.70;3.38;;;9.80;99.90;;;;;;5044741;28;20476;-72
2023/03/22 02:51:04;;;;;;;10.07;3.65;;;9.70;99.90;;;;;;5045585;28;20036;-71
2023/03/22 02:53:37;;;;;;;10.55;3.47;;;9.80;99.90;;;;;;5045635;28;20044;-71
2023/03/22 02:56:08;;;;;;;11.30;3.50;;;9.80;99.90;;;;;;5061474;28;20040;-72
2023/03/22 02:58:38;;;;;;;10.38;3.45;;;9.80;99.90;;;;;;5050155;28;20089;-72
2023/03/22 03:01:11;;;;;;;15.68;4.10;;;9.80;99.90;;;;;;5047594;28;20040;-72
2023/03/22 03:03:38;;;;;;;11.27;3.88;;;9.80;99.90;;;;;;5052812;28;20098;-72
2023/03/22 03:06:15;;;;;;;8.82;3.92;;;9.80;99.90;;;;;;5042790;28;20109;-72
2023/03/22 03:08:45;;;;;;;13.63;4.78;;;9.80;99.90;;;;;;5026969;28;20131;-71
2023/03/22 03:11:11;;;;;;;;;;;9.80;99.90;;;;;;5045531;28;20071;-72
2023/03/22 03:13:37;;;;;;;11.60;3.97;;;9.80;99.90;;;;;;5077196;28;19924;-72
2023/03/22 03:16:16;;;;;;;14.27;4.47;;;9.70;99.90;;;;;;5047658;28;20521;-71
2023/03/22 03:19:04;;;;;;;14.63;5.13;;;9.80;99.90;;;;;;5048128;28;20044;-71
2023/03/22 03:22:21;;;;;;;10.60;4.63;;;9.80;99.90;;;;;;5061649;28;20041;-72
2023/03/22 03:25:31;;;;;;;10.57;4.28;;;9.80;99.90;;;;;;4996674;28;20063;-71
2023/03/22 03:28:21;;;;;;;12.00;4.20;;;9.80;99.90;;;;;;5058921;28;20040;-71
2023/03/22 03:31:38;;;;;;;12.68;4.50;;;9.80;99.90;;;;;;5059195;28;20051;-70
2023/03/22 03:34:23;;;;;;;11.48;4.95;;;9.70;99.90;;;;;;5018827;28;20451;-70
2023/03/22 03:37:07;;;;;;;12.77;4.22;;;9.70;99.90;;;;;;5053185;28;20505;-71
2023/03/22 03:39:37;;;;;;;12.45;4.40;;;9.80;99.90;;;;;;5052130;28;20059;-72
2023/03/22 03:42:05;;;;;;;13.57;4.45;;;9.70;99.90;;;;;;5058714;28;20055;-72
2023/03/22 03:44:33;;;;;;;11.85;4.35;;;9.80;99.90;;;;;;5049026;28;20040;-72
2023/03/22 03:47:01;;;;;;;14.57;4.65;;;9.80;99.90;;;;;;5043998;28;20101;-71
2023/03/22 03:49:27;;;;;;;10.05;4.28;;;9.80;99.90;;;;;;5029555;28;20055;-71
2023/03/22 03:51:54;;;;;;;10.88;4.57;;;9.80;99.90;;;;;;5043772;28;20120;-71
2023/03/22 03:54:21;;;;;;;10.70;4.90;;;9.80;99.90;;;;;;5040535;28;20060;-71
2023/03/22 03:56:47;;;;;;;12.75;3.92;;;9.80;99.90;;;;;;5049971;28;20570;-71
2023/03/22 03:59:15;;;;;;;9.43;3.75;;;9.80;99.90;;;;;;5082965;28;20051;-71
2023/03/22 04:01:48;;;;;;;11.93;3.90;;;9.80;99.90;;;;;;5045571;28;20071;-71
2023/03/22 04:04:25;;;;;;;12.88;4.35;;;9.80;99.90;;;;;;5060575;28;20041;-71
2023/03/22 04:06:55;;;;;;;9.85;4.43;;;9.70;99.90;;;;;;5044598;28;20137;-71
2023/03/22 04:09:30;;;;;;;10.65;4.15;;;9.80;99.90;;;;;;5047107;28;20501;-71
2023/03/22 04:11:56;;;;;;;9.82;4.15;;;9.70;99.90;;;;;;5066842;28;20040;-71
2023/03/22 04:14:23;;;;;;;10.35;4.95;;;9.80;99.90;;;;;;5049938;28;20055;-71
2023/03/22 04:16:49;;;;;;;10.52;5.05;;;9.70;99.90;;;;;;5070382;28;20510;-71
2023/03/22 04:19:15;;;;;;;11.20;5.45;;;9.80;99.90;;;;;;5068569;28;20102;-73
2023/03/22 04:21:41;;;;;;;9.07;6.30;;;9.80;99.90;;;;;;5043027;28;20051;-70
2023/03/22 04:24:08;;;;;;;14.13;7.22;;;9.80;99.90;;;;;;5011481;28;20044;-71
2023/03/22 04:26:34;;;;;;;12.40;6.55;;;9.90;99.90;;;;;;5063475;28;20055;-71
2023/03/22 04:29:01;;;;;;;13.23;7.35;;;9.90;99.90;;;;;;5036771;28;20036;-71
2023/03/22 04:31:32;;;;;;;13.85;8.23;;;9.90;99.90;;;;;;5049828;28;20086;-71
2023/03/22 04:33:59;;;;;;;11.95;8.57;;;9.90;99.90;;;;;;5045608;28;20546;-71
2023/03/22 04:36:29;;;;;;;12.88;8.40;;;10.00;99.90;;;;;;5054115;28;20048;-71
2023/03/22 04:38:56;;;;;;;13.68;8.90;;;10.00;99.90;;;;;;5024166;28;20384;-72
2023/03/22 04:41:22;;;;;;;15.43;10.20;;;10.00;99.90;;;;;;5047804;28;20044;-71
2023/03/22 04:43:49;;;;;;;15.68;11.48;;;10.00;99.90;;;;;;5034587;28;20047;-72
2023/03/22 04:46:20;;;;;;;17.25;11.50;;;10.00;99.90;;;;;;5056668;28;20052;-72
2023/03/22 04:48:45;;;;;;;15.63;11.60;;;10.00;99.90;;;;;;5042264;28;20041;-72
2023/03/22 04:51:11;;;;;;;15.93;12.63;;;10.10;99.90;;;;;;5048715;28;20084;-72
2023/03/22 04:53:37;;;;;;;17.45;13.10;;;10.10;99.90;;;;;;5055535;28;20036;-72
2023/03/22 04:56:09;;;;;;;17.17;13.05;;;10.10;99.90;;;;;;5048195;28;20406;-73
2023/03/22 04:58:40;;;;;;;17.50;14.27;;;10.10;99.90;;;;;;5050953;28;20779;-72
2023/03/22 05:01:08;;;;;;;18.17;13.95;;;10.10;99.90;;;;;;5059081;28;20044;-72
2023/03/22 05:03:34;;;;;;;18.20;14.18;;;10.10;99.90;;;;;;5039160;28;20520;-72
2023/03/22 05:06:05;;;;;;;18.95;14.98;;;10.20;99.90;;;;;;5043605;28;20127;-72
2023/03/22 05:08:31;;;;;;;17.00;14.73;;;10.20;99.90;;;;;;5044597;28;20491;-71
2023/03/22 05:11:03;;;;;;;18.23;15.77;;;10.20;99.90;;;;;;5032169;28;20440;-72
2023/03/22 05:13:29;;;;;;;18.77;14.52;;;10.20;99.90;;;;;;5079858;28;20052;-72
2023/03/22 05:15:55;;;;;;;17.50;15.38;;;10.20;99.90;;;;;;5045838;28;20132;-72
2023/03/22 05:18:25;;;;;;;18.85;16.05;;;10.20;99.90;;;;;;5064134;28;20055;-72
2023/03/22 05:20:54;;;;;;;18.77;15.52;;;10.20;99.90;;;;;;5049811;28;20498;-72
2023/03/22 05:23:22;;;;;;;17.88;15.98;;;10.20;99.90;;;;;;5067003;28;20046;-73
2023/03/22 05:25:49;;;;;;;18.08;16.17;;;10.20;99.90;;;;;;5067361;28;20101;-72
2023/03/22 05:28:18;;;;;;;19.15;16.15;;;10.20;99.90;;;;;;5051082;28;20051;-73
2023/03/22 05:30:45;;;;;;;21.10;17.60;;;10.20;99.90;;;;;;5045188;28;20095;-74
2023/03/22 05:33:11;;;;;;;20.05;16.73;;;10.20;99.90;;;;;;5052591;28;20041;-73
2023/03/22 05:35:38;;;;;;;19.50;17.45;;;10.20;99.90;;;;;;5043990;28;20040;-73
2023/03/22 05:38:05;;;;;;;19.80;16.55;;;10.20;99.90;;;;;;5047531;28;20032;-74
2023/03/22 05:40:31;;;;;;;20.27;18.08;;;10.20;99.90;;;;;;5063848;28;20041;-73
2023/03/22 05:42:57;;;;;;;19.83;16.95;;;10.20;99.90;;;;;;5041738;28;20049;-74
2023/03/22 05:45:23;;;;;;;21.10;18.10;;;10.10;99.90;;;;;;5063881;28;20390;-73
2023/03/22 05:47:49;;;;;;;21.85;18.00;;;10.20;99.90;;;;;;5053993;28;20079;-73
2023/03/22 05:50:21;;;;;;;19.77;16.48;;;10.10;99.90;;;;;;5059574;28;20051;-74
2023/03/22 05:52:47;;;;;;;19.73;17.05;;;10.10;99.90;;;;;;5058798;28;20048;-74
2023/03/22 05:55:16;;;;;;;19.45;16.73;;;10.20;99.90;;;;;;5057798;28;20130;-73
2023/03/22 05:57:43;;;;;;;18.13;15.95;;;10.10;99.90;;;;;;5062702;28;20055;-74
2023/03/22 06:00:13;;;;;;;20.13;17.25;;;10.10;99.90;;;;;;5046549;28;20904;-73
2023/03/22 06:02:45;;;;;;;20.85;17.38;;;10.10;99.90;;;;;;5056436;28;20101;-73
2023/03/22 06:05:13;;;;;;;19.58;17.08;;;10.10;99.90;;;;;;5047724;28;20040;-75
2023/03/22 06:07:40;;;;;;;25.30;17.67;;;10.10;99.90;;;;;;5051466;28;20036;-74
2023/03/22 06:10:07;;;;;;;18.05;16.05;;;10.10;99.90;;;;;;5058313;28;20424;-73
2023/03/22 06:12:33;;;;;;;20.77;17.77;;;10.10;99.90;;;;;;5028698;28;20091;-73
2023/03/22 06:15:03;;;;;;;17.60;15.75;;;10.10;99.90;;;;;;5025166;28;20044;-74
2023/03/22 06:17:29;;;;;;;20.08;17.60;;;10.10;99.90;;;;;;5027203;28;20040;-74
2023/03/22 06:19:58;;;;;;;19.05;16.50;;;10.20;99.90;;;;;;5061310;28;20052;-74
2023/03/22 06:22:24;;;;;;;20.77;17.33;;;10.20;99.90;;;;;;5025633;28;20058;-74
2023/03/22 06:24:50;;;;;;;18.27;15.70;;;10.20;99.90;;;;;;5063061;28;20059;-74
2023/03/22 06:27:16;;;;;;;22.27;17.02;;;10.30;99.90;;;;;;5030562;28;20121;-72
2023/03/22 06:29:49;;;;;;;19.25;16.08;;;10.30;99.90;;;;;;5046205;28;20085;-71
2023/03/22 06:32:15;;;;;;;17.60;15.32;;;10.30;99.90;;;;;;5060116;28;20040;-72
2023/03/22 06:34:41;;;;;;;18.25;16.35;;;10.30;99.90;;;;;;5036480;28;20111;-72
2023/03/22 06:37:07;;;;;;;17.08;14.93;;;10.30;99.90;;;;;;5043764;28;20044;-72
2023/03/22 06:39:32;;;;;;;18.77;16.27;;;10.30;99.90;;;;;;5029775;28;20476;-72
2023/03/22 06:41:58;;;;;;;17.98;15.30;;;10.40;99.90;;;;;;5042117;28;20040;-71
2023/03/22 06:44:24;;;;;;;18.02;15.10;;;10.40;99.90;;;;;;5056045;28;20039;-72
2023/03/22 06:46:50;;;;;;;19.40;16.45;;;10.40;99.90;;;;;;5026156;28;20096;-72
2023/03/22 06:49:18;;;;;;;18.10;15.82;;;10.40;99.90;;;;;;5057777;28;20458;-71
2023/03/22 06:51:44;;;;;;;19.55;14.70;;;10.40;99.90;;;;;;5042996;28;20048;-72
2023/03/22 06:54:12;;;;;;;18.85;16.15;;;10.50;99.90;;;;;;5055248;28;20046;-71
2023/03/22 06:56:37;;;;;;;15.68;13.88;;;10.50;99.90;;;;;;5026494;28;20052;-72
2023/03/22 06:59:03;;;;;;;18.63;14.85;;;10.60;99.90;;;;;;5043372;28;20249;-71
2023/03/22 07:01:32;;;;;;;16.45;14.40;;;10.60;99.90;;;;;;5039137;28;20696;-71
2023/03/22 07:03:58;;;;;;;17.02;14.18;;;10.60;99.90;;;;;;5030959;28;20490;-71
2023/03/22 07:06:24;;;;;;;17.75;13.30;;;10.60;99.90;;;;;;5025736;28;20044;-71
2023/03/22 07:08:50;;;;;;;16.35;13.52;;;10.70;99.90;;;;;;5060700;28;20135;-71
2023/03/22 07:11:19;;;;;;;15.77;13.85;;;10.70;99.90;;;;;;5054243;28;20555;-71
2023/03/22 07:13:45;;;;;;;15.93;13.35;;;10.70;99.90;;;;;;5061388;28;20109;-71
2023/03/22 07:16:11;;;;;;;16.08;13.27;;;10.70;99.90;;;;;;5040765;28;20527;-71
2023/03/22 07:18:37;;;;;;;14.70;12.15;;;10.80;99.90;;;;;;5064979;28;20040;-71
2023/03/22 07:21:02;;;;;;;15.65;12.30;;;10.80;99.90;;;;;;5061906;28;20072;-71
2023/03/22 07:23:32;;;;;;;15.27;12.23;;;10.90;99.90;;;;;;5065344;28;20047;-71
2023/03/22 07:26:02;;;;;;;13.27;11.63;;;10.90;99.90;;;;;;5064245;28;20082;-71
2023/03/22 07:28:28;;;;;;;13.68;10.77;;;11.00;99.90;;;;;;5031580;28;20306;-74
2023/03/22 07:31:05;;;;;;;14.00;10.85;;;11.00;99.90;;;;;;5044229;28;20066;-74
2023/03/22 07:33:34;;;;;;;16.27;10.75;;;11.00;99.90;;;;;;5047253;28;20059;-73
2023/03/22 07:36:04;;;;;;;11.93;10.40;;;11.00;99.90;;;;;;5064201;28;20068;-74
2023/03/22 07:38:34;;;;;;;16.23;10.27;;;11.10;99.90;;;;;;5066313;28;20892;-73
2023/03/22 07:41:03;;;;;;;14.18;11.18;;;11.10;99.90;;;;;;5059544;28;20610;-73
2023/03/22 07:43:29;;;;;;;14.02;9.80;;;11.10;99.90;;;;;;5029720;28;20154;-73
2023/03/22 07:45:55;;;;;;;13.18;9.93;;;11.10;99.90;;;;;;5049692;28;20111;-74
2023/03/22 07:48:21;;;;;;;15.20;9.77;;;11.10;99.90;;;;;;5059558;28;20119;-72
2023/03/22 07:50:47;;;;;;;14.75;9.40;;;11.10;99.90;;;;;;5052984;28;20040;-72
2023/03/22 07:53:13;;;;;;;11.20;9.32;;;11.10;99.90;;;;;;5048260;28;20127;-73
2023/03/22 07:55:41;;;;;;;14.52;9.52;;;11.10;99.90;;;;;;5067249;28;20066;-73
2023/03/22 07:58:08;;;;;;;10.32;8.10;;;11.00;99.90;;;;;;5029807;28;20071;-73
2023/03/22 08:00:34;;;;;;;13.07;8.15;;;11.00;99.90;;;;;;5049675;28;20047;-74
2023/03/22 08:03:01;;;;;;;12.65;7.38;;;11.00;99.90;;;;;;5059717;28;20118;-73
2023/03/22 08:05:27;;;;;;;15.55;9.15;;;11.00;99.90;;;;;;5050120;28;20047;-73
2023/03/22 08:07:53;;;;;;;12.45;8.13;;;11.00;99.90;;;;;;5065874;28;20097;-73
2023/03/22 08:10:19;;;;;;;13.63;7.32;;;11.10;99.90;;;;;;5048790;28;20048;-73
2023/03/22 08:12:45;;;;;;;10.13;7.30;;;11.10;99.90;;;;;;5057291;28;20044;-73
2023/03/22 08:15:11;;;;;;;12.82;7.75;;;11.10;99.90;;;;;;5060350;28;20066;-72
2023/03/22 08:17:37;;;;;;;9.15;6.80;;;11.20;99.90;;;;;;5032351;28;20062;-72
2023/03/22 08:20:07;;;;;;;12.32;6.65;;;11.30;99.90;;;;;;5031905;28;20037;-73
2023/03/22 08:22:36;;;;;;;12.68;6.90;;;11.40;99.90;;;;;;5048667;28;20047;-72
2023/03/22 08:25:06;;;;;;;12.43;6.25;;;11.40;99.90;;;;;;5030314;28;20041;-74
2023/03/22 08:27:31;;;;;;;13.68;6.38;;;11.30;99.90;;;;;;5051756;28;20354;-75
2023/03/22 08:29:57;;;;;;;13.00;6.47;;;11.30;99.90;;;;;;5041269;28;20127;-74
2023/03/22 08:32:23;;;;;;;13.18;7.13;;;11.30;99.90;;;;;;5068171;28;20124;-76
2023/03/22 08:34:50;;;;;;;9.65;6.65;;;11.30;99.90;;;;;;5047448;28;20079;-74
2023/03/22 08:37:19;;;;;;;11.55;6.40;;;11.20;99.90;;;;;;5032935;28;20040;-74
2023/03/22 08:39:45;;;;;;;10.43;6.22;;;11.20;99.90;;;;;;5049011;28;20048;-76
2023/03/22 08:42:11;;;;;;;12.93;7.22;;;11.20;99.90;;;;;;5067900;28;20448;-75
2023/03/22 08:44:36;;;;;;;10.48;6.43;;;11.20;99.90;;;;;;5061335;28;20221;-74
2023/03/22 08:47:03;;;;;;;13.82;7.07;;;11.30;99.90;;;;;;5033772;28;20521;-74
2023/03/22 08:49:32;;;;;;;13.80;6.35;;;11.30;99.90;;;;;;5029911;28;20044;-74
2023/03/22 08:51:58;;;;;;;11.97;5.90;;;11.40;99.90;;;;;;5049228;28;20112;-74
2023/03/22 08:54:26;;;;;;;9.80;6.38;;;11.50;99.90;;;;;;5046231;28;20135;-74
2023/03/22 08:56:51;;;;;;;11.20;6.35;;;11.60;99.90;;;;;;5045342;28;20040;-74
2023/03/22 08:59:17;;;;;;;12.60;6.88;;;11.60;99.90;;;;;;5049871;28;20040;-74
2023/03/22 09:01:43;;;;;;;54.60;30.58;;;11.60;99.90;;;;;;5030703;28;20048;-74
2023/03/22 09:04:09;;;;;;;21.52;13.02;;;11.70;99.90;;;;;;5046405;28;20032;-74
2023/03/22 09:06:36;;;;;;;15.40;6.75;;;11.70;99.90;;;;;;5017576;28;20051;-74
2023/03/22 09:09:02;;;;;;;12.57;6.63;;;11.70;99.90;;;;;;5063913;28;20453;-74
2023/03/22 09:11:28;;;;;;;12.60;6.13;;;11.80;99.90;;;;;;5051338;28;20498;-74
2023/03/22 09:13:54;;;;;;;12.25;6.05;;;11.80;99.90;;;;;;5040897;28;20101;-74
2023/03/22 09:16:20;;;;;;;13.00;5.53;;;11.80;99.90;;;;;;5067966;28;20047;-74
2023/03/22 09:18:45;;;;;;;10.50;5.05;;;11.90;99.90;;;;;;5045898;28;20051;-76
2023/03/22 09:21:11;;;;;;;12.02;6.22;;;11.90;99.90;;;;;;5050363;28;20063;-76
2023/03/22 09:23:38;;;;;;;13.15;6.43;;;11.90;99.90;;;;;;5059006;28;20135;-75
2023/03/22 09:26:06;;;;;;;12.65;5.88;;;11.80;99.90;;;;;;5061817;28;20048;-76
2023/03/22 09:28:34;;;;;;;9.88;5.35;;;11.80;99.90;;;;;;5061409;28;20079;-75
2023/03/22 09:31:06;;;;;;;11.25;5.13;;;11.80;99.90;;;;;;5061393;28;20047;-75
2023/03/22 09:33:33;;;;;;;9.82;4.68;;;11.90;99.90;;;;;;5044286;28;20052;-74
2023/03/22 09:36:02;;;;;;;9.68;4.95;;;11.90;99.90;;;;;;5052676;28;20047;-74
2023/03/22 09:38:31;;;;;;;10.60;5.10;;;11.90;99.90;;;;;;5046775;28;20138;-75
2023/03/22 09:41:32;;;;;;;13.87;5.47;;;11.80;99.90;;;;;;5044342;28;20040;-74
2023/03/22 09:44:02;;;;;;;11.27;4.55;;;11.80;99.90;;;;;;5061179;28;20044;-75
2023/03/22 09:46:42;;;;;;;9.70;5.03;;;11.80;99.90;;;;;;5063918;28;20767;-75
2023/03/22 09:49:21;;;;;;;12.10;5.07;;;11.80;99.90;;;;;;5041441;28;20293;-73
2023/03/22 09:51:52;;;;;;;13.25;4.68;;;11.80;99.90;;;;;;5044960;28;20032;-73
2023/03/22 09:54:37;;;;;;;10.13;4.65;;;11.80;99.90;;;;;;5024544;28;20033;-73
2023/03/22 09:57:15;;;;;;;13.13;5.93;;;11.70;99.90;;;;;;5043695;28;20067;-73
2023/03/22 09:59:50;;;;;;;15.05;4.85;;;11.60;99.90;;;;;;5046660;28;20453;-73
2023/03/22 10:02:21;;;;;;;12.68;4.65;;;11.60;99.90;;;;;;5050752;28;20048;-73
2023/03/22 10:04:54;;;;;;;11.90;4.60;;;11.50;99.90;;;;;;5062204;28;20055;-73
2023/03/22 10:07:32;;;;;;;12.82;5.10;;;11.50;99.90;;;;;;5061698;28;20055;-74
2023/03/22 10:10:20;;;;;;;10.05;4.43;;;11.50;99.90;;;;;;5043053;28;20040;-74
2023/03/22 10:12:59;;;;;;;11.80;5.03;;;11.50;99.90;;;;;;5045037;28;20126;-74
2023/03/22 10:15:58;;;;;;;11.27;5.05;;;11.40;99.90;;;;;;5040015;28;20097;-74
2023/03/22 10:18:30;;;;;;;14.32;4.75;;;11.50;99.90;;;;;;5064522;28;20044;-74
2023/03/22 10:21:05;;;;;;;11.35;4.65;;;11.40;99.90;;;;;;5057015;28;20054;-74
2023/03/22 10:23:43;;;;;;;8.13;4.25;;;11.40;99.90;;;;;;5054242;28;20104;-73
2023/03/22 10:26:20;;;;;;;10.50;4.50;;;11.40;99.90;;;;;;5044529;28;20035;-74
2023/03/22 10:28:54;;;;;;;9.15;4.28;;;11.40;99.90;;;;;;5040760;28;20075;-74
2023/03/22 10:31:20;;;;;;;9.65;4.07;;;11.40;99.90;;;;;;5059147;28;20056;-74
2023/03/22 10:34:15;;;;;;;9.10;4.43;;;11.40;99.90;;;;;;5045410;28;20048;-74
2023/03/22 10:36:43;;;;;;;7.80;3.78;;;11.30;99.90;;;;;;5059402;28;20138;-74
2023/03/22 10:39:34;;;;;;;9.40;4.40;;;11.30;99.90;;;;;;5059033;28;20400;-74
2023/03/22 10:42:05;;;;;;;9.00;4.60;;;11.30;99.90;;;;;;5056508;28;20039;-74
2023/03/22 10:44:35;;;;;;;8.68;3.85;;;11.40;99.90;;;;;;5047916;28;20122;-75
2023/03/22 10:47:06;;;;;;;8.93;4.43;;;11.30;99.90;;;;;;5042697;28;20072;-74
2023/03/22 10:49:41;;;;;;;10.88;4.30;;;11.30;99.90;;;;;;5052120;28;20043;-74
2023/03/22 10:52:21;;;;;;;10.43;4.45;;;11.30;99.90;;;;;;5058551;28;20096;-74
2023/03/22 10:54:50;;;;;;;12.75;4.93;;;11.20;99.90;;;;;;5061277;28;20063;-74
2023/03/22 10:57:16;;;;;;;9.02;5.03;;;11.20;99.90;;;;;;5054956;28;20036;-73
2023/03/22 10:59:51;;;;;;;8.52;4.70;;;11.10;99.90;;;;;;5045719;28;20041;-74
2023/03/22 11:02:37;;;;;;;10.95;5.10;;;11.10;99.90;;;;;;5059010;28;20047;-73
2023/03/22 11:05:05;;;;;;;11.48;5.05;;;11.00;99.90;;;;;;5048030;28;20051;-73
2023/03/22 11:07:44;;;;;;;10.15;5.35;;;11.00;99.90;;;;;;5050046;28;20105;-73
2023/03/22 11:10:10;;;;;;;10.70;6.13;;;11.00;99.90;;;;;;5060624;28;20456;-72
2023/03/22 11:13:06;;;;;;;14.05;6.13;;;10.90;99.90;;;;;;5044195;28;20302;-73
2023/03/22 11:15:34;;;;;;;10.25;5.45;;;10.90;99.90;;;;;;5044461;28;20055;-73
2023/03/22 11:18:10;;;;;;;10.80;5.10;;;10.90;99.90;;;;;;5060317;28;20063;-73
2023/03/22 11:20:40;;;;;;;11.23;5.28;;;10.90;99.90;;;;;;5060747;28;20090;-72
2023/03/22 11:23:10;;;;;;;11.85;5.15;;;10.80;99.90;;;;;;5059982;28;20048;-73
2023/03/22 11:25:44;;;;;;;10.05;4.90;;;10.80;99.90;;;;;;5038656;28;20044;-73
2023/03/22 11:28:31;;;;;;;10.30;5.43;;;10.80;99.90;;;;;;5047274;28;20048;-73
2023/03/22 11:31:16;;;;;;;9.93;5.82;;;10.80;99.90;;;;;;5040685;28;20055;-72
2023/03/22 11:33:59;;;;;;;10.32;5.53;;;10.80;99.90;;;;;;5064399;28;20465;-73
2023/03/22 11:36:30;;;;;;;12.75;5.25;;;10.80;99.90;;;;;;5045056;28;20051;-73
2023/03/22 11:39:01;;;;;;;11.68;4.90;;;10.80;99.90;;;;;;5064217;28;20047;-73
2023/03/22 11:41:34;;;;;;;12.10;5.20;;;10.90;99.90;;;;;;5046637;28;20126;-73
2023/03/22 11:44:03;;;;;;;9.35;5.47;;;10.90;99.90;;;;;;5062343;28;20506;-73
2023/03/22 11:46:30;;;;;;;8.15;4.93;;;10.90;99.90;;;;;;5062498;28;20389;-73
2023/03/22 11:49:00;;;;;;;8.07;4.88;;;10.90;99.90;;;;;;5061498;28;20039;-73
2023/03/22 11:51:38;;;;;;;10.85;4.65;;;10.90;99.90;;;;;;5045857;28;20068;-73
2023/03/22 11:54:25;;;;;;;10.88;4.70;;;10.90;99.90;;;;;;5062376;28;20040;-73
2023/03/22 11:56:58;;;;;;;9.00;4.43;;;10.90;99.90;;;;;;5063458;28;20074;-73
2023/03/22 11:59:27;;;;;;;11.35;5.13;;;11.00;99.90;;;;;;5064388;28;20151;-73
2023/03/22 12:02:33;;;;;;;10.85;5.15;;;10.90;99.90;;;;;;5064540;28;20452;-73
2023/03/22 12:05:07;;;;;;;9.63;4.85;;;10.90;99.90;;;;;;5049722;28;20031;-73
2023/03/22 12:07:35;;;;;;;8.75;4.03;;;10.90;99.90;;;;;;5063824;28;20113;-73
2023/03/22 12:10:15;;;;;;;10.52;5.50;;;10.90;99.90;;;;;;5051545;28;20048;-73
2023/03/22 12:12:48;;;;;;;;;;;10.90;99.90;;;;;;5053853;28;20120;-73
2023/03/22 12:15:21;;;;;;;8.25;4.80;;;10.90;99.90;;;;;;5059896;28;20025;-73
2023/03/22 12:17:51;;;;;;;11.25;5.43;;;10.90;99.90;;;;;;5067634;28;20493;-73
2023/03/22 12:20:35;;;;;;;;;;;10.90;99.90;;;;;;5049538;28;20056;-73
2023/03/22 12:23:08;;;;;;;12.13;5.10;;;10.90;99.90;;;;;;5061417;28;20323;-74
2023/03/22 12:25:35;;;;;;;9.55;5.03;;;10.90;99.90;;;;;;5048057;28;20063;-77
2023/03/22 12:28:08;;;;;;;9.75;5.40;;;10.90;99.90;;;;;;5067484;28;20048;-75
2023/03/22 12:30:43;;;;;;;12.98;5.30;;;10.90;99.90;;;;;;5050097;28;20303;-74
2023/03/22 12:33:24;;;;;;;10.75;5.30;;;10.90;99.90;;;;;;5047895;28;20051;-75
2023/03/22 12:35:54;;;;;;;13.82;5.78;;;10.90;99.90;;;;;;5063097;28;20279;-73
2023/03/22 12:38:39;;;;;;;;;;;10.90;99.90;;;;;;5062699;28;20052;-73
2023/03/22 12:41:16;;;;;;;10.88;6.13;;;10.80;99.90;;;;;;5046026;28;20424;-72
2023/03/22 12:43:52;;;;;;;10.10;5.55;;;10.80;99.90;;;;;;5051467;28;20109;-72
2023/03/22 12:46:32;;;;;;;10.02;6.43;;;10.90;99.90;;;;;;5065272;28;20530;-73
2023/03/22 12:49:21;;;;;;;12.90;5.95;;;10.90;99.90;;;;;;5064398;28;20091;-74
2023/03/22 12:51:52;;;;;;;12.40;7.47;;;10.90;99.90;;;;;;5063948;28;20051;-74
2023/03/22 12:54:23;;;;;;;10.90;7.13;;;10.80;99.90;;;;;;5048462;28;20055;-73
2023/03/22 12:56:50;;;;;;;11.00;7.13;;;10.80;99.90;;;;;;5061569;28;20048;-73
2023/03/22 12:59:20;;;;;;;11.77;7.47;;;10.80;99.90;;;;;;5047771;28;20120;-73
2023/03/22 13:01:53;;;;;;;15.13;7.93;;;10.80;99.90;;;;;;5061771;28;20040;-74